createdAt,value
2022-08-30T00:01:02.876Z,17.44
2022-08-30T00:02:06.975Z,17.43
2022-08-30T00:03:11.085Z,17.43
2022-08-30T00:04:14.232Z,17.42
2022-08-30T00:05:17.796Z,17.42
2022-08-30T00:06:21.743Z,17.41
2022-08-30T00:07:25.238Z,17.41
2022-08-30T00:08:28.228Z,17.42
2022-08-30T00:09:32.337Z,17.42
2022-08-30T00:10:35.767Z,17.42
2022-08-30T00:11:38.627Z,17.42
2022-08-30T00:12:43.476Z,17.43
2022-08-30T00:13:46.606Z,17.42
2022-08-30T00:14:49.743Z,17.42
2022-08-30T00:15:53.186Z,17.42
2022-08-30T00:16:56.314Z,17.41
2022-08-30T00:17:59.352Z,17.42
2022-08-30T00:19:02.384Z,17.43
2022-08-30T00:20:07.001Z,17.43
2022-08-30T00:21:10.913Z,17.42
2022-08-30T00:22:14.087Z,17.40
2022-08-30T00:23:18.182Z,17.40
2022-08-30T00:24:21.237Z,17.39
2022-08-30T00:25:24.423Z,17.37
2022-08-30T00:26:27.585Z,17.34
2022-08-30T00:27:30.786Z,17.33
2022-08-30T00:28:34.099Z,17.31
2022-08-30T00:29:37.088Z,17.29
2022-08-30T00:30:40.970Z,17.25
2022-08-30T00:31:44.088Z,17.24
2022-08-30T00:32:47.473Z,17.23
2022-08-30T00:33:50.504Z,17.21
2022-08-30T00:34:54.330Z,17.18
2022-08-30T00:35:57.250Z,17.16
2022-08-30T00:37:00.734Z,17.15
2022-08-30T00:38:03.759Z,17.13
2022-08-30T00:39:06.646Z,17.11
2022-08-30T00:40:10.255Z,17.09
2022-08-30T00:41:13.179Z,17.08
2022-08-30T00:42:17.589Z,17.06
2022-08-30T00:43:23.334Z,17.04
2022-08-30T00:44:27.099Z,17.01
2022-08-30T00:45:32.128Z,16.98
2022-08-30T00:46:35.482Z,16.96
2022-08-30T00:47:38.569Z,16.93
2022-08-30T00:48:43.193Z,16.91
2022-08-30T00:49:48.105Z,16.90
2022-08-30T00:51:00.273Z,16.89
2022-08-30T00:52:04.502Z,16.88
2022-08-30T00:53:10.843Z,16.88
2022-08-30T00:54:14.350Z,16.87
2022-08-30T00:55:17.883Z,16.88
2022-08-30T00:56:21.118Z,16.88
2022-08-30T00:57:24.074Z,16.88
2022-08-30T00:58:29.482Z,16.89
2022-08-30T00:59:32.748Z,16.88
2022-08-30T01:00:35.942Z,16.88
2022-08-30T01:01:39.388Z,16.88
2022-08-30T01:02:42.939Z,16.89
2022-08-30T01:03:47.023Z,16.88
2022-08-30T01:04:51.522Z,16.88
2022-08-30T01:05:54.662Z,16.87
2022-08-30T01:06:57.619Z,16.86
2022-08-30T01:08:01.069Z,16.86
2022-08-30T01:09:05.346Z,16.86
2022-08-30T01:10:10.134Z,16.87
2022-08-30T01:11:15.162Z,16.88
2022-08-30T01:12:18.576Z,16.88
2022-08-30T01:13:22.732Z,16.87
2022-08-30T01:14:26.166Z,16.87
2022-08-30T01:15:29.359Z,16.85
2022-08-30T01:16:33.921Z,16.82
2022-08-30T01:17:38.823Z,16.79
2022-08-30T01:18:44.688Z,16.77
2022-08-30T01:19:51.454Z,16.76
2022-08-30T01:21:13.311Z,16.75
2022-08-30T01:22:18.940Z,16.74
2022-08-30T01:23:23.188Z,16.73
2022-08-30T01:24:26.588Z,16.73
2022-08-30T01:25:30.721Z,16.73
2022-08-30T01:26:34.891Z,16.72
2022-08-30T01:27:53.517Z,16.71
2022-08-30T01:28:58.787Z,16.71
2022-08-30T01:30:01.949Z,16.70
2022-08-30T01:32:46.709Z,16.70
2022-08-30T01:33:51.083Z,16.70
2022-08-30T01:34:54.020Z,16.70
2022-08-30T01:35:56.839Z,16.70
2022-08-30T01:36:59.807Z,16.70
2022-08-30T01:38:02.897Z,16.70
2022-08-30T01:39:06.234Z,16.71
2022-08-30T01:40:09.538Z,16.70
2022-08-30T01:41:23.144Z,16.70
2022-08-30T01:42:26.057Z,16.69
2022-08-30T01:43:31.110Z,16.70
2022-08-30T01:44:34.251Z,16.70
2022-08-30T01:45:37.238Z,16.70
2022-08-30T01:46:42.095Z,16.70
2022-08-30T01:47:45.009Z,16.70
2022-08-30T01:48:50.327Z,16.70
2022-08-30T01:49:58.315Z,16.70
2022-08-30T01:51:01.252Z,16.70
2022-08-30T01:52:04.783Z,16.70
2022-08-30T01:53:07.950Z,16.69
2022-08-30T01:54:16.141Z,16.70
2022-08-30T01:55:19.753Z,16.71
2022-08-30T01:56:23.558Z,16.72
2022-08-30T01:57:29.461Z,16.73
2022-08-30T01:58:32.490Z,16.74
2022-08-30T01:59:35.857Z,16.75
2022-08-30T02:00:39.287Z,16.77
2022-08-30T02:01:43.114Z,16.77
2022-08-30T02:02:46.172Z,16.77
2022-08-30T02:03:49.538Z,16.77
2022-08-30T02:04:53.425Z,16.78
2022-08-30T02:05:56.796Z,16.77
2022-08-30T02:06:59.731Z,16.78
2022-08-30T02:08:03.576Z,16.78
2022-08-30T02:09:06.499Z,16.79
2022-08-30T02:10:09.889Z,16.80
2022-08-30T02:11:13.621Z,16.79
2022-08-30T02:12:16.590Z,16.79
2022-08-30T02:13:19.556Z,16.78
2022-08-30T02:14:22.530Z,16.78
2022-08-30T02:15:26.052Z,16.79
2022-08-30T02:16:29.429Z,16.79
2022-08-30T02:17:33.285Z,16.79
2022-08-30T02:18:37.094Z,16.79
2022-08-30T02:19:40.613Z,16.79
2022-08-30T02:20:43.670Z,16.79
2022-08-30T02:21:46.619Z,16.79
2022-08-30T02:22:49.652Z,16.78
2022-08-30T02:23:52.734Z,16.78
2022-08-30T02:24:55.754Z,16.78
2022-08-30T02:25:58.853Z,16.77
2022-08-30T02:27:01.938Z,16.76
2022-08-30T02:28:05.605Z,16.75
2022-08-30T02:29:09.418Z,16.75
2022-08-30T02:30:12.788Z,16.76
2022-08-30T02:31:16.024Z,16.76
2022-08-30T02:32:22.566Z,16.75
2022-08-30T02:33:25.457Z,16.74
2022-08-30T02:34:28.321Z,16.73
2022-08-30T02:35:31.414Z,16.73
2022-08-30T02:36:34.326Z,16.73
2022-08-30T02:37:37.616Z,16.75
2022-08-30T02:38:40.638Z,16.75
2022-08-30T02:39:43.590Z,16.76
2022-08-30T02:40:46.648Z,16.76
2022-08-30T02:41:49.831Z,16.75
2022-08-30T02:42:53.257Z,16.76
2022-08-30T02:43:59.403Z,16.76
2022-08-30T02:45:02.588Z,16.74
2022-08-30T02:46:06.121Z,16.74
2022-08-30T02:47:09.052Z,16.73
2022-08-30T02:48:12.081Z,16.72
2022-08-30T02:49:33.518Z,16.72
2022-08-30T02:50:41.623Z,16.71
2022-08-30T02:51:44.610Z,16.70
2022-08-30T02:52:48.260Z,16.69
2022-08-30T02:53:51.641Z,16.69
2022-08-30T02:54:55.374Z,16.69
2022-08-30T02:55:58.872Z,16.68
2022-08-30T02:57:05.120Z,16.67
2022-08-30T02:58:09.032Z,16.65
2022-08-30T02:59:12.049Z,16.65
2022-08-30T03:00:16.869Z,16.64
2022-08-30T03:01:20.017Z,16.63
2022-08-30T03:02:23.000Z,16.62
2022-08-30T03:03:25.988Z,16.61
2022-08-30T03:04:29.462Z,16.60
2022-08-30T03:05:33.447Z,16.60
2022-08-30T03:06:36.605Z,16.59
2022-08-30T03:07:40.266Z,16.59
2022-08-30T03:08:43.286Z,16.59
2022-08-30T03:09:46.444Z,16.60
2022-08-30T03:10:49.576Z,16.60
2022-08-30T03:11:52.563Z,16.60
2022-08-30T03:12:55.867Z,16.60
2022-08-30T03:13:59.482Z,16.60
2022-08-30T03:15:02.708Z,16.59
2022-08-30T03:16:05.672Z,16.58
2022-08-30T03:17:12.774Z,16.57
2022-08-30T03:18:19.778Z,16.57
2022-08-30T03:19:22.874Z,16.56
2022-08-30T03:20:26.183Z,16.54
2022-08-30T03:21:29.082Z,16.52
2022-08-30T03:22:32.022Z,16.51
2022-08-30T03:23:35.473Z,16.48
2022-08-30T03:24:38.852Z,16.46
2022-08-30T03:25:41.875Z,16.44
2022-08-30T03:26:46.703Z,16.43
2022-08-30T03:27:50.743Z,16.41
2022-08-30T03:28:53.831Z,16.40
2022-08-30T03:29:57.165Z,16.39
2022-08-30T03:31:00.351Z,16.37
2022-08-30T03:32:03.850Z,16.35
2022-08-30T03:33:07.120Z,16.34
2022-08-30T03:34:10.994Z,16.34
2022-08-30T03:35:14.683Z,16.31
2022-08-30T03:36:17.861Z,16.29
2022-08-30T03:37:24.363Z,16.30
2022-08-30T03:38:28.552Z,16.28
2022-08-30T03:39:31.994Z,16.28
2022-08-30T03:40:36.355Z,16.25
2022-08-30T03:41:39.837Z,16.23
2022-08-30T03:42:44.983Z,16.21
2022-08-30T03:43:47.910Z,16.19
2022-08-30T03:44:51.030Z,16.18
2022-08-30T03:45:54.188Z,16.17
2022-08-30T03:46:57.223Z,16.15
2022-08-30T03:48:02.329Z,16.13
2022-08-30T03:49:07.455Z,16.11
2022-08-30T03:50:11.197Z,16.10
2022-08-30T03:51:14.423Z,16.09
2022-08-30T03:52:17.418Z,16.09
2022-08-30T03:53:21.613Z,16.09
2022-08-30T03:54:24.945Z,16.07
2022-08-30T03:55:29.021Z,16.06
2022-08-30T03:56:32.151Z,16.06
2022-08-30T03:57:36.591Z,16.05
2022-08-30T03:58:40.648Z,16.04
2022-08-30T03:59:43.665Z,16.03
2022-08-30T04:00:46.711Z,16.03
2022-08-30T04:01:49.854Z,16.02
2022-08-30T04:02:53.020Z,16.01
2022-08-30T04:03:56.739Z,16.02
2022-08-30T04:04:59.883Z,16.01
2022-08-30T04:06:03.457Z,16.01
2022-08-30T04:07:06.555Z,16.01
2022-08-30T04:08:09.622Z,16.00
2022-08-30T04:09:12.605Z,15.99
2022-08-30T04:10:15.756Z,15.99
2022-08-30T04:11:18.864Z,15.97
2022-08-30T04:12:22.668Z,15.96
2022-08-30T04:13:26.136Z,15.94
2022-08-30T04:14:29.187Z,15.94
2022-08-30T04:15:32.088Z,15.93
2022-08-30T04:16:35.582Z,15.92
2022-08-30T04:17:38.537Z,15.90
2022-08-30T04:18:41.732Z,15.89
2022-08-30T04:19:44.809Z,15.87
2022-08-30T04:20:47.909Z,15.86
2022-08-30T04:21:50.898Z,15.85
2022-08-30T04:22:54.028Z,15.84
2022-08-30T04:23:57.148Z,15.84
2022-08-30T04:25:00.089Z,15.83
2022-08-30T04:26:03.192Z,15.83
2022-08-30T04:27:06.067Z,15.82
2022-08-30T04:28:09.146Z,15.81
2022-08-30T04:29:12.413Z,15.81
2022-08-30T04:30:16.106Z,15.81
2022-08-30T04:31:19.442Z,15.80
2022-08-30T04:32:22.579Z,15.80
2022-08-30T04:33:25.731Z,15.81
2022-08-30T04:34:28.748Z,15.81
2022-08-30T04:35:31.851Z,15.82
2022-08-30T04:36:34.763Z,15.84
2022-08-30T04:37:38.890Z,15.85
2022-08-30T04:38:42.081Z,15.86
2022-08-30T04:39:46.398Z,15.88
2022-08-30T04:40:49.453Z,15.90
2022-08-30T04:41:52.542Z,15.93
2022-08-30T04:42:56.325Z,15.96
2022-08-30T04:44:03.294Z,15.99
2022-08-30T04:45:08.929Z,16.01
2022-08-30T04:46:13.994Z,16.03
2022-08-30T04:47:18.356Z,16.04
2022-08-30T04:48:22.298Z,16.05
2022-08-30T04:49:25.341Z,16.06
2022-08-30T04:50:28.411Z,16.07
2022-08-30T04:51:31.331Z,16.08
2022-08-30T04:52:34.470Z,16.09
2022-08-30T04:53:37.493Z,16.09
2022-08-30T04:54:40.844Z,16.08
2022-08-30T04:55:44.321Z,16.10
2022-08-30T04:56:47.252Z,16.11
2022-08-30T04:57:51.141Z,16.13
2022-08-30T04:58:55.171Z,16.14
2022-08-30T04:59:58.250Z,16.15
2022-08-30T05:01:01.433Z,16.16
2022-08-30T05:02:05.828Z,16.16
2022-08-30T05:03:08.911Z,16.16
2022-08-30T05:04:11.955Z,16.16
2022-08-30T05:05:33.532Z,16.16
2022-08-30T05:06:36.896Z,16.15
2022-08-30T05:07:39.938Z,16.15
2022-08-30T05:08:46.037Z,16.17
2022-08-30T05:09:50.048Z,16.17
2022-08-30T05:10:53.149Z,16.18
2022-08-30T05:11:56.245Z,16.19
2022-08-30T05:12:59.452Z,16.20
2022-08-30T05:14:02.495Z,16.20
2022-08-30T05:15:05.652Z,16.21
2022-08-30T05:16:08.888Z,16.23
2022-08-30T05:17:12.208Z,16.24
2022-08-30T05:18:15.909Z,16.26
2022-08-30T05:19:18.917Z,16.27
2022-08-30T05:20:21.906Z,16.27
2022-08-30T05:21:26.683Z,16.26
2022-08-30T05:22:29.830Z,16.26
2022-08-30T05:23:32.763Z,16.27
2022-08-30T05:24:36.448Z,16.28
2022-08-30T05:25:41.380Z,16.31
2022-08-30T05:26:44.582Z,16.34
2022-08-30T05:27:47.885Z,16.36
2022-08-30T05:28:50.932Z,16.38
2022-08-30T05:29:55.450Z,16.40
2022-08-30T05:30:58.437Z,16.41
2022-08-30T05:32:01.678Z,16.43
2022-08-30T05:33:04.807Z,16.46
2022-08-30T05:34:07.909Z,16.49
2022-08-30T05:35:11.765Z,16.52
2022-08-30T05:36:15.728Z,16.56
2022-08-30T05:37:18.919Z,16.58
2022-08-30T05:38:21.978Z,16.61
2022-08-30T05:39:25.302Z,16.63
2022-08-30T05:40:29.182Z,16.66
2022-08-30T05:41:32.659Z,16.69
2022-08-30T05:42:36.312Z,16.71
2022-08-30T05:43:39.983Z,16.73
2022-08-30T05:44:44.377Z,16.76
2022-08-30T05:45:47.458Z,16.79
2022-08-30T05:46:50.620Z,16.81
2022-08-30T05:47:53.943Z,16.85
2022-08-30T05:48:57.717Z,16.88
2022-08-30T05:50:00.622Z,16.92
2022-08-30T05:51:03.763Z,16.95
2022-08-30T05:52:06.979Z,16.99
2022-08-30T05:53:10.019Z,17.03
2022-08-30T05:54:13.794Z,17.05
2022-08-30T05:55:19.004Z,17.07
2022-08-30T05:56:24.744Z,17.10
2022-08-30T05:57:28.730Z,17.13
2022-08-30T05:58:32.207Z,17.16
2022-08-30T05:59:35.269Z,17.19
2022-08-30T06:00:38.280Z,17.22
2022-08-30T06:01:42.717Z,17.25
2022-08-30T06:02:46.183Z,17.28
2022-08-30T06:03:49.484Z,17.31
2022-08-30T06:04:52.593Z,17.33
2022-08-30T06:05:55.637Z,17.36
2022-08-30T06:06:59.024Z,17.39
2022-08-30T06:08:01.894Z,17.41
2022-08-30T06:09:05.849Z,17.45
2022-08-30T06:10:12.435Z,17.49
2022-08-30T06:11:17.192Z,17.51
2022-08-30T06:12:20.290Z,17.52
2022-08-30T06:13:23.553Z,17.52
2022-08-30T06:14:26.671Z,17.53
2022-08-30T06:15:29.836Z,17.54
2022-08-30T06:16:33.429Z,17.55
2022-08-30T06:17:36.590Z,17.56
2022-08-30T06:18:39.808Z,17.57
2022-08-30T06:19:42.864Z,17.60
2022-08-30T06:20:51.254Z,17.62
2022-08-30T06:21:54.174Z,17.65
2022-08-30T06:22:57.195Z,17.67
2022-08-30T06:24:00.846Z,17.69
2022-08-30T06:25:03.994Z,17.71
2022-08-30T06:26:07.593Z,17.73
2022-08-30T06:27:11.101Z,17.76
2022-08-30T06:28:14.336Z,17.78
2022-08-30T06:29:19.737Z,17.79
2022-08-30T06:30:22.720Z,17.79
2022-08-30T06:31:26.085Z,17.78
2022-08-30T06:32:29.080Z,17.77
2022-08-30T06:33:32.049Z,17.77
2022-08-30T06:34:35.133Z,17.78
2022-08-30T06:35:52.162Z,17.80
2022-08-30T06:37:01.244Z,17.81
2022-08-30T06:38:04.353Z,17.80
2022-08-30T06:39:07.840Z,17.82
2022-08-30T06:40:11.217Z,17.84
2022-08-30T06:41:20.399Z,17.85
2022-08-30T06:42:36.252Z,17.86
2022-08-30T06:43:48.608Z,17.86
2022-08-30T06:44:55.252Z,17.87
2022-08-30T06:46:02.324Z,17.87
2022-08-30T06:47:05.970Z,17.87
2022-08-30T06:48:08.904Z,17.89
2022-08-30T06:49:11.984Z,17.91
2022-08-30T06:50:15.982Z,17.93
2022-08-30T06:51:22.383Z,17.94
2022-08-30T06:52:25.745Z,17.98
2022-08-30T06:53:31.670Z,18.01
2022-08-30T06:54:34.572Z,18.02
2022-08-30T06:55:37.555Z,18.03
2022-08-30T06:56:55.303Z,18.04
2022-08-30T06:58:01.661Z,18.05
2022-08-30T06:59:05.094Z,18.07
2022-08-30T07:00:09.474Z,18.09
2022-08-30T07:01:18.088Z,18.12
2022-08-30T07:02:21.146Z,18.14
2022-08-30T07:03:24.118Z,18.16
2022-08-30T07:04:27.038Z,18.18
2022-08-30T07:05:30.012Z,18.17
2022-08-30T07:06:33.450Z,18.17
2022-08-30T07:07:36.577Z,18.18
2022-08-30T07:08:39.622Z,18.18
2022-08-30T07:09:43.693Z,18.18
2022-08-30T07:10:46.847Z,18.17
2022-08-30T07:11:50.729Z,18.16
2022-08-30T07:12:53.799Z,18.17
2022-08-30T07:13:56.916Z,18.17
2022-08-30T07:14:59.810Z,18.17
2022-08-30T07:16:09.323Z,18.16
2022-08-30T07:17:34.782Z,18.16
2022-08-30T07:18:56.720Z,18.15
2022-08-30T07:19:59.711Z,18.16
2022-08-30T07:21:06.885Z,18.15
2022-08-30T07:22:09.950Z,18.16
2022-08-30T07:23:13.233Z,18.16
2022-08-30T07:24:16.508Z,18.14
2022-08-30T07:25:19.913Z,18.11
2022-08-30T07:26:25.542Z,18.09
2022-08-30T07:27:28.740Z,18.06
2022-08-30T07:28:32.355Z,18.04
2022-08-30T07:29:35.352Z,17.99
2022-08-30T07:30:38.869Z,17.95
2022-08-30T07:31:41.948Z,17.94
2022-08-30T07:32:44.980Z,17.92
2022-08-30T07:33:48.399Z,17.89
2022-08-30T07:34:51.710Z,17.87
2022-08-30T07:35:54.867Z,17.84
2022-08-30T07:36:57.764Z,17.84
2022-08-30T07:38:00.876Z,17.85
2022-08-30T07:39:04.964Z,17.85
2022-08-30T07:40:09.111Z,17.86
2022-08-30T07:41:16.848Z,17.86
2022-08-30T07:42:19.893Z,17.85
2022-08-30T07:43:22.970Z,17.84
2022-08-30T07:44:26.289Z,17.82
2022-08-30T07:45:29.358Z,17.80
2022-08-30T07:46:32.444Z,17.79
2022-08-30T07:47:35.545Z,17.78
2022-08-30T07:48:38.699Z,17.76
2022-08-30T07:49:41.781Z,17.74
2022-08-30T07:50:45.455Z,17.73
2022-08-30T07:51:48.897Z,17.73
2022-08-30T07:52:51.874Z,17.72
2022-08-30T07:53:55.524Z,17.72
2022-08-30T07:54:59.459Z,17.72
2022-08-30T07:56:04.770Z,17.72
2022-08-30T07:57:07.984Z,17.72
2022-08-30T07:58:10.917Z,17.72
2022-08-30T07:59:14.003Z,17.73
2022-08-30T08:00:17.370Z,17.73
2022-08-30T08:01:21.210Z,17.73
2022-08-30T08:02:24.309Z,17.74
2022-08-30T08:03:27.576Z,17.74
2022-08-30T08:04:30.756Z,17.72
2022-08-30T08:05:53.230Z,17.66
2022-08-30T08:06:56.342Z,17.61
2022-08-30T08:07:59.584Z,17.60
2022-08-30T08:09:02.617Z,17.60
2022-08-30T08:10:06.258Z,17.60
2022-08-30T08:11:16.394Z,17.57
2022-08-30T08:12:19.741Z,17.55
2022-08-30T08:13:23.597Z,17.55
2022-08-30T08:14:31.394Z,17.55
2022-08-30T08:15:34.572Z,17.56
2022-08-30T08:16:38.104Z,17.56
2022-08-30T08:17:41.192Z,17.57
2022-08-30T08:18:44.172Z,17.58
2022-08-30T08:19:47.139Z,17.60
2022-08-30T08:20:50.194Z,17.61
2022-08-30T08:22:21.021Z,17.60
2022-08-30T08:23:23.207Z,17.61
2022-08-30T08:24:26.955Z,17.62
2022-08-30T08:25:29.883Z,17.62
2022-08-30T08:26:37.433Z,17.61
2022-08-30T08:27:40.873Z,17.60
2022-08-30T08:28:45.009Z,17.59
2022-08-30T08:29:48.031Z,17.57
2022-08-30T08:30:54.122Z,17.53
2022-08-30T08:31:58.482Z,17.48
2022-08-30T08:33:02.014Z,17.47
2022-08-30T08:34:08.203Z,17.47
2022-08-30T08:35:11.630Z,17.46
2022-08-30T08:36:15.132Z,17.42
2022-08-30T08:37:19.135Z,17.40
2022-08-30T08:38:24.139Z,17.37
2022-08-30T08:39:27.135Z,17.33
2022-08-30T08:40:35.147Z,17.29
2022-08-30T08:41:44.248Z,17.27
2022-08-30T08:43:00.954Z,17.26
2022-08-30T08:44:08.860Z,17.24
2022-08-30T08:45:14.431Z,17.23
2022-08-30T08:46:36.187Z,17.20
2022-08-30T08:47:39.163Z,17.20
2022-08-30T08:48:59.472Z,17.19
2022-08-30T08:50:05.238Z,17.18
2022-08-30T08:51:29.014Z,17.17
2022-08-30T08:53:01.594Z,17.15
2022-08-30T08:54:17.509Z,17.11
2022-08-30T08:55:22.295Z,17.08
2022-08-30T08:56:25.394Z,17.06
2022-08-30T08:57:31.890Z,17.05
2022-08-30T08:58:41.579Z,17.02
2022-08-30T08:59:45.168Z,16.98
2022-08-30T09:00:48.388Z,16.95
2022-08-30T09:01:51.487Z,16.92
2022-08-30T09:02:58.563Z,16.90
2022-08-30T09:04:12.725Z,16.86
2022-08-30T09:05:18.890Z,16.81
2022-08-30T09:06:28.939Z,16.77
2022-08-30T09:07:40.311Z,16.73
2022-08-30T09:08:43.201Z,16.69
2022-08-30T09:09:46.165Z,16.67
2022-08-30T09:10:54.317Z,16.63
2022-08-30T09:11:57.923Z,16.58
2022-08-30T09:13:02.286Z,16.54
2022-08-30T09:14:17.575Z,16.50
2022-08-30T09:15:33.019Z,16.46
2022-08-30T09:17:06.594Z,16.42
2022-08-30T09:18:16.886Z,16.37
2022-08-30T09:19:34.530Z,16.32
2022-08-30T09:20:41.271Z,16.29
2022-08-30T09:21:44.187Z,16.27
2022-08-30T09:22:47.343Z,16.25
2022-08-30T09:23:56.287Z,16.22
2022-08-30T09:25:01.991Z,16.21
2022-08-30T09:26:07.426Z,16.20
2022-08-30T09:27:16.104Z,16.22
2022-08-30T09:28:23.308Z,16.22
2022-08-30T09:29:26.555Z,16.22
2022-08-30T09:30:30.358Z,16.23
2022-08-30T09:31:45.683Z,16.23
2022-08-30T09:33:14.609Z,16.23
2022-08-30T09:34:20.328Z,16.23
2022-08-30T09:35:34.715Z,16.24
2022-08-30T09:36:40.509Z,16.23
2022-08-30T09:37:46.534Z,16.24
2022-08-30T09:38:57.543Z,16.25
2022-08-30T09:40:00.985Z,16.26
2022-08-30T09:41:41.989Z,16.28
2022-08-30T09:42:58.654Z,16.31
2022-08-30T09:44:06.746Z,16.35
2022-08-30T09:45:19.297Z,16.39
2022-08-30T09:46:24.492Z,16.45
2022-08-30T09:47:31.793Z,16.48
2022-08-30T09:48:35.328Z,16.53
2022-08-30T09:49:43.626Z,16.57
2022-08-30T09:50:49.394Z,16.61
2022-08-30T09:52:04.099Z,16.65
2022-08-30T09:53:11.854Z,16.70
2022-08-30T09:54:17.683Z,16.76
2022-08-30T09:55:28.017Z,16.80
2022-08-30T09:56:44.762Z,16.86
2022-08-30T09:57:56.682Z,16.89
2022-08-30T09:59:00.093Z,16.91
2022-08-30T10:00:04.377Z,16.94
2022-08-30T10:01:11.935Z,16.97
2022-08-30T10:02:15.130Z,17.02
2022-08-30T10:03:40.632Z,17.06
2022-08-30T10:04:48.462Z,17.10
2022-08-30T10:06:10.986Z,17.12
2022-08-30T10:07:20.088Z,17.16
2022-08-30T10:08:26.031Z,17.17
2022-08-30T10:09:32.150Z,17.19
2022-08-30T10:10:45.626Z,17.22
2022-08-30T10:11:54.501Z,17.25
2022-08-30T10:12:57.346Z,17.29
2022-08-30T10:14:04.048Z,17.34
2022-08-30T10:15:16.530Z,17.39
2022-08-30T10:16:20.108Z,17.44
2022-08-30T10:17:46.015Z,17.50
2022-08-30T10:18:53.472Z,17.61
2022-08-30T10:20:07.521Z,17.71
2022-08-30T10:21:19.101Z,17.80
2022-08-30T10:22:26.449Z,17.90
2022-08-30T10:23:32.712Z,18.01
2022-08-30T10:24:43.964Z,18.09
2022-08-30T10:26:00.060Z,18.15
2022-08-30T10:27:13.848Z,18.21
2022-08-30T10:28:22.829Z,18.30
2022-08-30T10:29:31.888Z,18.37
2022-08-30T10:30:38.278Z,18.44
2022-08-30T10:31:51.854Z,18.50
2022-08-30T10:33:00.155Z,18.53
2022-08-30T10:34:06.535Z,18.56
2022-08-30T10:35:19.375Z,18.56
2022-08-30T10:36:26.234Z,18.56
2022-08-30T10:37:31.649Z,18.56
2022-08-30T10:38:37.897Z,18.58
2022-08-30T10:39:43.169Z,18.60
2022-08-30T10:41:07.501Z,18.61
2022-08-30T10:42:31.218Z,18.65
2022-08-30T10:43:39.120Z,18.68
2022-08-30T10:44:45.444Z,18.69
2022-08-30T10:45:50.453Z,18.71
2022-08-30T10:47:09.144Z,18.74
2022-08-30T10:48:24.378Z,18.76
2022-08-30T10:49:28.867Z,18.77
2022-08-30T10:50:41.412Z,18.78
2022-08-30T10:51:58.856Z,18.79
2022-08-30T10:53:08.211Z,18.84
2022-08-30T10:54:18.659Z,18.87
2022-08-30T10:55:25.913Z,18.90
2022-08-30T10:56:29.619Z,18.93
2022-08-30T10:57:32.968Z,18.99
2022-08-30T10:58:40.233Z,19.01
2022-08-30T10:59:46.010Z,19.05
2022-08-30T11:01:07.820Z,19.10
2022-08-30T11:02:36.421Z,19.15
2022-08-30T11:03:39.870Z,19.20
2022-08-30T11:04:45.738Z,19.26
2022-08-30T11:05:51.758Z,19.32
2022-08-30T11:07:12.829Z,19.35
2022-08-30T11:08:28.638Z,19.36
2022-08-30T11:09:31.451Z,19.37
2022-08-30T11:10:42.325Z,19.39
2022-08-30T11:12:00.425Z,19.38
2022-08-30T11:13:09.899Z,19.40
2022-08-30T11:14:15.451Z,19.41
2022-08-30T11:15:23.228Z,19.40
2022-08-30T11:16:37.374Z,19.40
2022-08-30T11:17:45.140Z,19.41
2022-08-30T11:18:52.068Z,19.43
2022-08-30T11:19:56.735Z,19.43
2022-08-30T11:21:18.316Z,19.44
2022-08-30T11:22:35.544Z,19.47
2022-08-30T11:23:42.080Z,19.50
2022-08-30T11:24:58.522Z,19.54
2022-08-30T11:26:06.718Z,19.57
2022-08-30T11:27:30.780Z,19.59
2022-08-30T11:28:35.455Z,19.60
2022-08-30T11:29:40.376Z,19.62
2022-08-30T11:30:44.019Z,19.65
2022-08-30T11:31:47.593Z,19.65
2022-08-30T11:33:02.344Z,19.63
2022-08-30T11:34:06.266Z,19.65
2022-08-30T11:36:37.637Z,19.69
2022-08-30T11:37:44.805Z,19.69
2022-08-30T11:38:48.857Z,19.72
2022-08-30T11:39:55.168Z,19.75
2022-08-30T11:40:59.049Z,19.78
2022-08-30T11:42:21.256Z,19.79
2022-08-30T11:43:40.271Z,19.80
2022-08-30T11:44:43.710Z,19.86
2022-08-30T11:45:48.632Z,19.93
2022-08-30T11:46:55.108Z,20.00
2022-08-30T11:48:04.308Z,20.05
2022-08-30T11:49:14.001Z,20.08
2022-08-30T11:50:25.365Z,20.09
2022-08-30T11:51:29.165Z,20.11
2022-08-30T11:52:43.666Z,20.15
2022-08-30T11:53:52.728Z,20.19
2022-08-30T11:55:01.844Z,20.21
2022-08-30T11:56:10.164Z,20.26
2022-08-30T11:57:40.843Z,20.27
2022-08-30T11:58:53.120Z,20.28
2022-08-30T11:59:59.444Z,20.32
2022-08-30T12:01:41.905Z,20.34
2022-08-30T12:02:40.236Z,20.44
2022-08-30T12:03:44.228Z,20.48
2022-08-30T12:04:47.560Z,20.51
2022-08-30T12:05:58.964Z,20.54
2022-08-30T12:07:05.614Z,20.56
2022-08-30T12:08:08.485Z,20.58
2022-08-30T12:09:20.951Z,20.59
2022-08-30T12:10:35.945Z,20.59
2022-08-30T12:11:38.840Z,20.60
2022-08-30T12:12:47.725Z,20.60
2022-08-30T12:13:52.558Z,20.59
2022-08-30T12:14:57.523Z,20.58
2022-08-30T12:16:05.629Z,20.56
2022-08-30T12:17:38.536Z,20.52
2022-08-30T12:18:48.276Z,20.41
2022-08-30T12:19:51.904Z,20.38
2022-08-30T12:20:56.597Z,20.37
2022-08-30T12:22:01.544Z,20.38
2022-08-30T12:23:17.572Z,20.38
2022-08-30T12:24:28.596Z,20.35
2022-08-30T12:25:32.946Z,20.30
2022-08-30T12:26:37.874Z,20.26
2022-08-30T12:27:41.035Z,20.21
2022-08-30T12:28:46.314Z,20.22
2022-08-30T12:29:56.946Z,20.25
2022-08-30T12:31:11.246Z,20.26
2022-08-30T12:32:22.383Z,20.27
2022-08-30T12:33:36.625Z,20.25
2022-08-30T12:34:45.055Z,20.19
2022-08-30T12:35:48.870Z,20.15
2022-08-30T12:36:54.708Z,20.12
2022-08-30T12:38:01.774Z,20.07
2022-08-30T12:39:14.265Z,20.00
2022-08-30T12:40:19.541Z,19.99
2022-08-30T12:41:23.936Z,20.04
2022-08-30T12:42:29.075Z,20.12
2022-08-30T12:43:40.530Z,20.19
2022-08-30T12:44:45.334Z,20.30
2022-08-30T12:45:50.750Z,20.51
2022-08-30T12:47:01.028Z,20.83
2022-08-30T12:48:07.830Z,21.19
2022-08-30T12:49:13.298Z,21.36
2022-08-30T12:50:18.685Z,21.40
2022-08-30T12:51:26.915Z,21.38
2022-08-30T12:52:33.828Z,21.37
2022-08-30T12:53:39.377Z,21.35
2022-08-30T12:54:42.680Z,21.30
2022-08-30T12:55:59.407Z,21.25
2022-08-30T12:57:25.517Z,21.18
2022-08-30T12:58:47.840Z,21.06
2022-08-30T13:00:01.850Z,20.89
2022-08-30T13:01:13.374Z,20.77
2022-08-30T13:02:20.152Z,20.68
2022-08-30T13:03:24.208Z,20.62
2022-08-30T13:04:28.089Z,20.58
2022-08-30T13:05:32.314Z,20.54
2022-08-30T13:06:43.846Z,20.51
2022-08-30T13:07:46.915Z,20.47
2022-08-30T13:08:51.705Z,20.46
2022-08-30T13:10:06.995Z,20.43
2022-08-30T13:11:11.482Z,20.38
2022-08-30T13:12:22.475Z,20.34
2022-08-30T13:13:45.057Z,20.32
2022-08-30T13:14:49.932Z,20.32
2022-08-30T13:15:55.374Z,20.33
2022-08-30T13:17:16.605Z,20.34
2022-08-30T13:18:26.897Z,20.31
2022-08-30T13:19:33.149Z,20.28
2022-08-30T13:20:36.002Z,20.25
2022-08-30T13:21:47.016Z,20.25
2022-08-30T13:23:05.248Z,20.24
2022-08-30T13:24:08.237Z,20.23
2022-08-30T13:25:11.678Z,20.21
2022-08-30T13:26:15.229Z,20.19
2022-08-30T13:27:27.124Z,20.18
2022-08-30T13:28:30.025Z,20.18
2022-08-30T13:29:33.236Z,20.17
2022-08-30T13:30:36.133Z,20.15
2022-08-30T13:31:39.167Z,20.11
2022-08-30T13:32:42.315Z,20.10
2022-08-30T13:33:46.157Z,20.11
2022-08-30T13:34:48.999Z,20.14
2022-08-30T13:35:53.200Z,20.17
2022-08-30T13:36:57.953Z,20.20
2022-08-30T13:38:01.807Z,20.23
2022-08-30T13:39:05.442Z,20.26
2022-08-30T13:40:12.930Z,20.30
2022-08-30T13:41:15.881Z,20.29
2022-08-30T13:42:34.657Z,20.26
2022-08-30T13:45:02.296Z,20.17
2022-08-30T13:46:06.781Z,20.13
2022-08-30T13:48:33.843Z,20.02
2022-08-30T13:49:44.936Z,19.96
2022-08-30T13:50:48.228Z,19.87
2022-08-30T13:52:19.057Z,19.81
2022-08-30T13:53:51.955Z,19.74
2022-08-30T13:54:39.775Z,19.68
2022-08-30T13:55:43.458Z,19.64
2022-08-30T13:56:46.484Z,19.60
2022-08-30T13:57:57.519Z,19.58
2022-08-30T13:59:02.776Z,19.55
2022-08-30T14:00:07.326Z,19.50
2022-08-30T14:01:15.133Z,19.46
2022-08-30T14:02:18.052Z,19.43
2022-08-30T14:03:21.267Z,19.41
2022-08-30T14:04:24.360Z,19.41
2022-08-30T14:06:21.993Z,19.42
2022-08-30T14:07:19.722Z,19.45
2022-08-30T14:08:45.183Z,19.50
2022-08-30T14:09:49.482Z,19.60
2022-08-30T14:10:52.595Z,19.87
2022-08-30T14:11:55.452Z,20.27
2022-08-30T14:13:13.970Z,20.57
2022-08-30T14:14:30.236Z,20.70
2022-08-30T14:15:41.354Z,20.76
2022-08-30T14:16:44.940Z,20.88
2022-08-30T14:17:48.222Z,21.31
2022-08-30T14:18:51.314Z,21.63